Time;durP1;ratioP1;P1;durP2;ratioP2;P2;SDS_P1;SDS_P2;PMS_P1;PMS_P2;Temp;Humidity;BMP_temperature;BMP_pressure;BME280_temperature;BME280_humidity;BME280_pressure;Samples;Min_cycle;Max_cycle;Signal;HPM_P1;HPM_P2
2022/01/03 00:00:10;;;;;;;1999.90;999.90;;;;;;;5.12;58.94;100247.81;4931471;28;98236;-71
2022/01/03 00:02:38;;;;;;;1999.90;999.90;;;;;;;5.09;58.72;100257.38;4928795;28;100422;-71
2022/01/03 00:05:07;;;;;;;1999.90;999.90;;;;;;;5.09;58.62;100255.63;4932741;28;97946;-71
2022/01/03 00:07:37;;;;;;;1999.90;999.90;;;;;;;5.04;58.76;100261.59;4932459;28;98806;-71
2022/01/03 00:10:06;;;;;;;1999.90;999.90;;;;;;;5.03;58.73;100257.16;4928153;28;98669;-71
2022/01/03 00:12:34;;;;;;;1999.90;999.90;;;;;;;5.00;58.69;100259.66;4930141;28;98754;-71
2022/01/03 00:15:04;;;;;;;1999.90;999.90;;;;;;;5.00;58.57;100263.19;4930368;28;97300;-71
2022/01/03 00:17:32;;;;;;;1999.90;999.90;;;;;;;5.00;58.51;100255.28;4944430;28;98729;-71
2022/01/03 00:19:59;;;;;;;1999.90;999.90;;;;;;;5.00;58.70;100257.91;4929643;28;97718;-71
2022/01/03 00:22:28;;;;;;;1999.90;999.90;;;;;;;4.96;58.70;100242.84;4931101;28;98849;-71
2022/01/03 00:25:00;;;;;;;1999.90;999.90;;;;;;;4.94;58.79;100235.69;4933895;28;96746;-71
2022/01/03 00:27:30;;;;;;;1999.90;999.90;;;;;;;4.93;58.72;100219.00;4913844;28;98289;-71
2022/01/03 00:29:58;;;;;;;1999.90;999.90;;;;;;;4.93;58.45;100197.91;4963593;28;97701;-70
2022/01/03 00:32:28;;;;;;;1999.90;999.90;;;;;;;4.91;58.68;100182.88;4930352;28;98796;-71
2022/01/03 00:34:56;;;;;;;1999.90;999.90;;;;;;;4.94;58.82;100178.59;4944041;28;98043;-70
2022/01/03 00:37:26;;;;;;;1999.90;999.90;;;;;;;4.97;58.51;100220.00;4930448;28;97193;-71
2022/01/03 00:39:56;;;;;;;1999.90;999.90;;;;;;;4.95;58.69;100235.78;4927926;28;99491;-71
2022/01/03 00:42:24;;;;;;;1999.90;999.90;;;;;;;4.94;58.55;100219.88;4959189;28;98104;-71
2022/01/03 00:44:53;;;;;;;1999.90;999.90;;;;;;;4.90;58.37;100212.75;4927759;28;97678;-72
2022/01/03 00:47:21;;;;;;;1999.90;999.90;;;;;;;4.92;58.51;100218.94;4924692;28;97649;-71
2022/01/03 00:49:50;;;;;;;1999.90;999.90;;;;;;;4.91;58.47;100219.78;4932756;28;100498;-71
2022/01/03 00:52:18;;;;;;;1999.90;999.90;;;;;;;4.87;58.48;100215.25;4936743;28;97703;-71
2022/01/03 00:54:46;;;;;;;1999.90;999.90;;;;;;;4.88;58.56;100228.47;4934477;28;98279;-71
2022/01/03 00:57:19;;;;;;;1999.90;999.90;;;;;;;4.82;58.67;100219.47;4941481;28;97017;-70
2022/01/03 00:59:53;;;;;;;1999.90;999.90;;;;;;;4.78;58.70;100214.94;4939774;28;97946;-71
2022/01/03 01:02:22;;;;;;;1999.90;999.90;;;;;;;4.74;58.98;100220.94;4934604;28;97806;-71
2022/01/03 01:04:53;;;;;;;1999.90;999.90;;;;;;;4.67;58.69;100211.00;4922785;28;97045;-72
2022/01/03 01:07:21;;;;;;;1999.90;999.90;;;;;;;4.58;59.20;100205.41;4921341;28;99443;-70
2022/01/03 01:09:51;;;;;;;1999.90;999.90;;;;;;;4.57;59.17;100217.69;4936843;28;97833;-71
2022/01/03 01:12:19;;;;;;;1999.90;999.90;;;;;;;4.57;59.12;100212.41;4932656;28;96894;-72
2022/01/03 01:14:50;;;;;;;1999.90;999.90;;;;;;;4.54;58.93;100206.13;4934836;28;96975;-71
2022/01/03 01:17:19;;;;;;;1999.90;999.90;;;;;;;4.52;59.10;100207.84;4916548;28;97148;-72
2022/01/03 01:19:47;;;;;;;1999.90;999.90;;;;;;;4.54;59.18;100203.50;4916347;28;99713;-71
2022/01/03 01:22:20;;;;;;;1999.90;999.90;;;;;;;4.58;58.74;100205.41;4919442;28;99436;-72
2022/01/03 01:24:59;;;;;;;1999.90;999.90;;;;;;;4.60;58.80;100203.72;4914846;28;97541;-71
2022/01/03 01:30:12;;;;;;;1999.90;999.90;;;;;;;4.56;58.76;100204.47;4930629;28;98605;-71
2022/01/03 01:32:43;;;;;;;1999.90;999.90;;;;;;;4.59;58.69;100205.47;4932089;28;99241;-71
2022/01/03 01:35:11;;;;;;;1999.90;999.90;;;;;;;4.62;58.69;100228.41;4929272;28;99170;-71
2022/01/03 01:37:41;;;;;;;1999.90;999.90;;;;;;;4.64;58.40;100203.00;4948487;28;96983;-71
2022/01/03 01:40:11;;;;;;;1999.90;999.90;;;;;;;4.66;58.54;100190.78;4933886;28;100699;-71
2022/01/03 01:42:45;;;;;;;1999.90;999.90;;;;;;;4.68;58.50;100178.56;4920440;28;99268;-70
2022/01/03 01:45:14;;;;;;;1999.90;999.90;;;;;;;4.69;58.46;100217.25;4916350;28;98521;-71
2022/01/03 01:47:43;;;;;;;1999.90;999.90;;;;;;;4.72;58.29;100186.63;4908705;28;98798;-71
2022/01/03 01:50:11;;;;;;;1999.90;999.90;;;;;;;4.67;58.52;100198.75;4933232;28;97072;-72
2022/01/03 01:52:40;;;;;;;1999.90;999.90;;;;;;;4.74;58.15;100187.56;4913210;28;100895;-71
2022/01/03 01:55:11;;;;;;;1999.90;999.90;;;;;;;4.79;57.94;100193.88;4929753;28;99205;-71
2022/01/03 01:57:55;;;;;;;1999.90;999.90;;;;;;;4.79;57.83;100204.44;4934256;28;98126;-71
2022/01/03 02:00:29;;;;;;;1999.90;999.90;;;;;;;4.86;57.63;100195.91;4932918;28;99854;-71
2022/01/03 02:03:14;;;;;;;1999.90;999.90;;;;;;;4.89;57.77;100192.47;4935498;28;101627;-71
2022/01/03 02:05:58;;;;;;;1999.90;999.90;;;;;;;4.91;57.75;100188.16;4932052;28;98720;-71
2022/01/03 02:08:28;;;;;;;1999.90;999.90;;;;;;;4.95;57.81;100175.16;4930400;28;97219;-71
2022/01/03 02:11:03;;;;;;;1999.90;999.90;;;;;;;4.97;57.19;100181.34;4937579;28;97698;-72
2022/01/03 02:13:32;;;;;;;1999.90;999.90;;;;;;;5.02;57.44;100192.06;4932306;28;98432;-71
2022/01/03 02:16:03;;;;;;;1999.90;999.90;;;;;;;5.02;57.69;100182.44;4918116;28;98370;-71
2022/01/03 02:18:38;;;;;;;1999.90;999.90;;;;;;;5.03;57.75;100184.22;4930695;28;97255;-71
2022/01/03 02:21:07;;;;;;;1999.90;999.90;;;;;;;5.03;57.41;100178.94;4915107;28;100767;-71
2022/01/03 02:23:35;;;;;;;1999.90;999.90;;;;;;;5.04;57.58;100175.50;4931767;28;98392;-70
2022/01/03 02:26:03;;;;;;;1999.90;999.90;;;;;;;5.06;57.57;100168.50;4915836;28;98105;-70
2022/01/03 02:28:31;;;;;;;1999.90;999.90;;;;;;;5.09;57.53;100178.25;4932247;28;96838;-70
2022/01/03 02:31:00;;;;;;;1999.90;999.90;;;;;;;5.10;57.59;100180.94;4930112;28;98711;-71
2022/01/03 02:33:28;;;;;;;1999.90;999.90;;;;;;;5.14;57.38;100187.22;4929990;28;97573;-71
2022/01/03 02:35:57;;;;;;;1999.90;999.90;;;;;;;5.14;57.47;100180.19;4914554;28;97918;-71
2022/01/03 02:38:27;;;;;;;1999.90;999.90;;;;;;;5.15;57.32;100200.47;4934227;28;97699;-71
2022/01/03 02:40:55;;;;;;;1999.90;999.90;;;;;;;5.17;57.10;100193.47;4934321;28;97714;-70
2022/01/03 02:43:24;;;;;;;1999.90;999.90;;;;;;;5.16;57.37;100173.25;4929461;28;97926;-71
2022/01/03 02:45:52;;;;;;;1999.90;999.90;;;;;;;5.17;56.97;100176.78;4931756;28;96850;-71
2022/01/03 02:48:22;;;;;;;1999.90;999.90;;;;;;;5.18;57.01;100178.56;4916965;28;97338;-71
2022/01/03 02:50:52;;;;;;;1999.90;999.90;;;;;;;5.22;57.16;100180.47;4910834;28;98840;-71
2022/01/03 02:53:20;;;;;;;1999.90;999.90;;;;;;;5.22;56.97;100191.00;4932593;28;96807;-71
2022/01/03 02:55:49;;;;;;;1999.90;999.90;;;;;;;5.23;56.78;100220.06;4934688;28;98387;-70
2022/01/03 02:58:17;;;;;;;1999.90;999.90;;;;;;;5.25;56.69;100174.41;4931979;28;96903;-70
2022/01/03 03:00:49;;;;;;;1999.90;999.90;;;;;;;5.26;56.13;100215.75;4920603;28;99320;-71
2022/01/03 03:03:38;;;;;;;1999.90;999.90;;;;;;;5.27;56.17;100193.78;4914420;28;97755;-71
2022/01/03 03:06:06;;;;;;;1999.90;999.90;;;;;;;5.30;55.94;100208.00;4916332;28;96890;-71
2022/01/03 03:08:36;;;;;;;1999.90;999.90;;;;;;;5.31;55.90;100216.78;4936231;28;98330;-71
2022/01/03 03:11:08;;;;;;;1999.90;999.90;;;;;;;5.31;56.19;100216.78;4931358;28;98955;-71
2022/01/03 03:13:37;;;;;;;1999.90;999.90;;;;;;;5.24;58.60;100228.88;4932223;28;98147;-71
2022/01/03 03:16:06;;;;;;;1999.90;999.90;;;;;;;5.26;56.52;100252.66;4917405;28;97013;-70
2022/01/03 03:18:35;;;;;;;1999.90;999.90;;;;;;;5.28;56.50;100251.88;4926044;28;97009;-71
2022/01/03 03:21:19;;;;;;;1999.90;999.90;;;;;;;5.20;56.54;100246.34;4949562;28;97551;-70
2022/01/03 03:24:02;;;;;;;1999.90;999.90;;;;;;;5.16;56.59;100256.72;4935538;28;97916;-70
2022/01/03 03:26:45;;;;;;;1999.90;999.90;;;;;;;5.12;56.50;100253.09;4865596;28;96949;-70
2022/01/03 03:29:13;;;;;;;1999.90;999.90;;;;;;;5.10;56.60;100285.56;4860720;28;97623;-71
2022/01/03 03:31:41;;;;;;;1999.90;999.90;;;;;;;5.04;56.72;100282.69;4865013;28;99575;-70
2022/01/03 03:34:10;;;;;;;1999.90;999.90;;;;;;;5.01;56.80;100269.38;4862668;28;100104;-71
2022/01/03 03:36:37;;;;;;;1999.90;999.90;;;;;;;4.99;56.79;100266.66;4863086;28;97363;-71
2022/01/03 03:39:05;;;;;;;1999.90;999.90;;;;;;;4.99;57.05;100263.16;4877679;28;97793;-71
2022/01/03 03:41:33;;;;;;;1999.90;999.90;;;;;;;4.97;56.70;100276.25;4878512;28;97926;-71
2022/01/03 03:44:02;;;;;;;1999.90;999.90;;;;;;;4.95;56.63;100284.97;4861535;28;99390;-71
2022/01/03 03:46:30;;;;;;;1999.90;999.90;;;;;;;4.96;56.80;100273.56;4880259;28;97281;-71
2022/01/03 03:48:59;;;;;;;1999.90;999.90;;;;;;;4.96;56.50;100282.38;4864671;28;97938;-72
2022/01/03 03:51:27;;;;;;;1999.90;999.90;;;;;;;4.98;56.60;100279.78;4875960;28;100530;-71
2022/01/03 03:53:55;;;;;;;1999.90;999.90;;;;;;;4.96;56.58;100277.09;4896480;28;98605;-71
2022/01/03 03:56:25;;;;;;;1999.90;999.90;;;;;;;4.97;56.58;100280.66;4873341;28;97496;-72
2022/01/03 03:58:53;;;;;;;1999.90;999.90;;;;;;;4.98;56.71;100290.34;4931575;28;97004;-71
2022/01/03 04:01:23;;;;;;;1999.90;999.90;;;;;;;4.99;56.67;100293.03;4915990;28;99256;-71
2022/01/03 04:03:54;;;;;;;1999.90;999.90;;;;;;;5.01;56.45;100290.47;4915968;28;99208;-72
2022/01/03 04:06:23;;;;;;;1999.90;999.90;;;;;;;5.01;56.35;100285.19;4935217;28;96884;-72
2022/01/03 04:08:55;;;;;;;1999.90;999.90;;;;;;;5.00;56.23;100288.66;4936084;28;96985;-71
2022/01/03 04:11:23;;;;;;;1999.90;999.90;;;;;;;4.99;56.26;100300.06;4919024;28;100797;-72
2022/01/03 04:13:52;;;;;;;1999.90;999.90;;;;;;;4.96;56.52;100299.94;4920998;28;98738;-71
2022/01/03 04:16:20;;;;;;;1999.90;999.90;;;;;;;4.94;56.42;100309.50;4920992;28;96777;-71
2022/01/03 04:18:49;;;;;;;1999.90;999.90;;;;;;;4.95;56.16;100303.41;4936191;28;96959;-71
2022/01/03 04:21:18;;;;;;;1999.90;999.90;;;;;;;4.94;56.35;100306.88;4917589;28;99728;-71
2022/01/03 04:23:46;;;;;;;1999.90;999.90;;;;;;;4.95;56.21;100300.78;4938793;28;98307;-71
2022/01/03 04:26:14;;;;;;;1999.90;999.90;;;;;;;4.93;56.18;100295.47;4913840;28;99075;-71
2022/01/03 04:28:42;;;;;;;1999.90;999.90;;;;;;;4.90;56.25;100308.50;4935125;28;97889;-71
2022/01/03 04:31:10;;;;;;;1999.90;999.90;;;;;;;4.88;56.46;100294.38;4932207;28;99454;-71
2022/01/03 04:33:38;;;;;;;1999.90;999.90;;;;;;;4.90;56.42;100318.19;4938284;28;96895;-71
2022/01/03 04:36:07;;;;;;;1999.90;999.90;;;;;;;4.91;56.19;100319.97;4915840;28;99617;-71
2022/01/03 04:38:35;;;;;;;1999.90;999.90;;;;;;;4.92;56.41;100329.66;4918189;28;96892;-71
2022/01/03 04:41:04;;;;;;;1999.90;999.90;;;;;;;4.91;56.42;100326.13;4933145;28;98609;-71
2022/01/03 04:43:33;;;;;;;1999.90;999.90;;;;;;;4.87;56.33;100326.88;4917363;28;100546;-71
2022/01/03 04:46:02;;;;;;;1999.90;999.90;;;;;;;4.88;56.41;100330.41;4932007;28;99081;-71
2022/01/03 04:48:30;;;;;;;1999.90;999.90;;;;;;;4.83;56.35;100332.84;4918732;28;98412;-72
2022/01/03 04:50:58;;;;;;;1999.90;999.90;;;;;;;4.82;56.25;100335.44;4929291;28;99342;-72
2022/01/03 04:53:27;;;;;;;1999.90;999.90;;;;;;;4.82;56.48;100335.44;4914706;28;99569;-72
2022/01/03 04:55:55;;;;;;;1999.90;999.90;;;;;;;4.81;56.39;100334.53;4925432;28;99514;-72
2022/01/03 04:58:23;;;;;;;1999.90;999.90;;;;;;;4.81;56.42;100334.53;4934975;28;98557;-71
2022/01/03 05:00:51;;;;;;;1999.90;999.90;;;;;;;4.82;56.58;100336.34;4909511;28;100074;-72
2022/01/03 05:03:19;;;;;;;1999.90;999.90;;;;;;;4.80;56.43;100337.13;4961745;28;99754;-71
2022/01/03 05:05:47;;;;;;;1999.90;999.90;;;;;;;4.79;56.70;100330.94;4932946;28;96874;-71
2022/01/03 05:08:15;;;;;;;1999.90;999.90;;;;;;;4.79;56.38;100330.06;4933077;28;98617;-72
2022/01/03 05:10:45;;;;;;;1999.90;999.90;;;;;;;4.75;56.46;100343.97;4936541;28;98991;-71
2022/01/03 05:13:14;;;;;;;1999.90;999.90;;;;;;;4.75;56.58;100349.25;4936116;28;97603;-71
2022/01/03 05:15:42;;;;;;;1999.90;999.90;;;;;;;4.75;56.48;100341.34;4935795;28;96990;-72
2022/01/03 05:18:10;;;;;;;1999.90;999.90;;;;;;;4.73;56.50;100319.28;4915778;28;99399;-71
2022/01/03 05:20:37;;;;;;;1999.90;999.90;;;;;;;4.76;56.60;100329.94;4937173;28;98978;-72
2022/01/03 05:23:05;;;;;;;1999.90;999.90;;;;;;;4.76;56.61;100322.03;4935607;28;96890;-72
2022/01/03 05:25:33;;;;;;;1999.90;999.90;;;;;;;4.74;56.52;100324.63;4917975;28;98755;-71
2022/01/03 05:28:02;;;;;;;1999.90;999.90;;;;;;;4.72;56.68;100328.94;4934542;28;97642;-71
2022/01/03 05:30:31;;;;;;;1999.90;999.90;;;;;;;4.72;56.62;100323.66;4922321;28;100542;-71
2022/01/03 05:33:00;;;;;;;1999.90;999.90;;;;;;;4.70;56.47;100330.59;4922772;28;99473;-71
2022/01/03 05:35:28;;;;;;;1999.90;999.90;;;;;;;4.68;56.71;100337.56;4934330;28;98479;-72
2022/01/03 05:37:56;;;;;;;1999.90;999.90;;;;;;;4.66;56.46;100341.00;4917874;28;97633;-71
2022/01/03 05:40:24;;;;;;;1999.90;999.90;;;;;;;4.63;56.29;100340.84;4928801;28;97758;-71
2022/01/03 05:42:53;;;;;;;1999.90;999.90;;;;;;;4.61;56.45;100361.88;4934923;28;98746;-72
2022/01/03 05:45:28;;;;;;;1999.90;999.90;;;;;;;4.63;56.28;100356.66;4915601;28;97027;-71
2022/01/03 05:47:56;;;;;;;1999.90;999.90;;;;;;;4.61;56.21;100358.38;4908869;28;97663;-71
2022/01/03 05:50:24;;;;;;;1999.90;999.90;;;;;;;4.60;56.19;100343.38;4959408;28;97608;-71
2022/01/03 05:52:53;;;;;;;1999.90;999.90;;;;;;;4.54;55.95;100359.84;4914971;28;98659;-71
2022/01/03 05:55:21;;;;;;;1999.90;999.90;;;;;;;4.55;56.34;100352.84;4906350;28;98811;-72
2022/01/03 05:57:49;;;;;;;1999.90;999.90;;;;;;;4.56;56.38;100352.91;4913882;28;97581;-72
2022/01/03 06:00:24;;;;;;;1999.90;999.90;;;;;;;4.57;56.33;100361.72;4944391;28;97691;-72
2022/01/03 06:02:56;;;;;;;1999.90;999.90;;;;;;;4.52;56.09;100351.00;4927384;28;96938;-72
2022/01/03 06:05:40;;;;;;;1999.90;999.90;;;;;;;4.53;56.41;100357.16;4929766;28;96943;-72
2022/01/03 06:08:09;;;;;;;1999.90;999.90;;;;;;;4.53;56.15;100338.72;4931075;28;96922;-72
2022/01/03 06:10:42;;;;;;;1999.90;999.90;;;;;;;4.52;56.40;100344.84;4930943;28;98957;-72
2022/01/03 06:13:17;;;;;;;1999.90;999.90;;;;;;;4.51;56.25;100357.13;4923088;28;97895;-72
2022/01/03 06:15:46;;;;;;;1999.90;999.90;;;;;;;4.51;56.24;100358.84;4934164;28;97167;-73
2022/01/03 06:18:17;;;;;;;1999.90;999.90;;;;;;;4.50;56.33;100367.59;4916486;28;97007;-72
2022/01/03 06:20:48;;;;;;;1999.90;999.90;;;;;;;4.48;56.29;100354.34;4919041;28;99510;-72
2022/01/03 06:23:20;;;;;;;1999.90;999.90;;;;;;;4.45;56.15;100358.59;4914912;28;99126;-72
2022/01/03 06:25:48;;;;;;;1999.90;999.90;;;;;;;4.41;56.48;100369.88;4914247;28;97279;-71
2022/01/03 06:28:24;;;;;;;1999.90;999.90;;;;;;;4.35;56.32;100380.16;4961129;28;98749;-72
2022/01/03 06:30:52;;;;;;;1999.90;999.90;;;;;;;4.37;56.43;100365.31;4933695;28;98324;-72
2022/01/03 06:33:21;;;;;;;1999.90;999.90;;;;;;;4.32;56.59;100391.47;4933106;28;98661;-72
2022/01/03 06:35:49;;;;;;;1999.90;999.90;;;;;;;4.35;56.47;100388.97;4914843;28;97715;-71
2022/01/03 06:38:16;;;;;;;1999.90;999.90;;;;;;;4.32;56.56;100393.22;4935570;28;98425;-71
2022/01/03 06:40:44;;;;;;;1999.90;999.90;;;;;;;4.32;56.74;100378.28;4919484;28;99668;-71
2022/01/03 06:43:12;;;;;;;1999.90;999.90;;;;;;;4.34;56.67;100415.22;4941319;28;98249;-71
2022/01/03 06:45:40;;;;;;;1999.90;999.90;;;;;;;4.31;57.02;100400.22;4928832;28;98136;-71
2022/01/03 06:48:10;;;;;;;1999.90;999.90;;;;;;;4.30;56.76;100400.16;4913073;28;97694;-71
2022/01/03 06:50:40;;;;;;;1999.90;999.90;;;;;;;4.27;56.73;100403.56;4926628;28;98194;-71
2022/01/03 06:53:08;;;;;;;1999.90;999.90;;;;;;;4.26;56.79;100401.78;4919308;28;99277;-71
2022/01/03 06:55:38;;;;;;;1999.90;999.90;;;;;;;4.28;56.80;100407.09;4930150;28;98302;-71
2022/01/03 06:58:06;;;;;;;1999.90;999.90;;;;;;;4.26;57.01;100411.41;4922278;28;98586;-71
2022/01/03 07:00:34;;;;;;;1999.90;999.90;;;;;;;4.19;56.85;100419.03;4916158;28;99712;-71
2022/01/03 07:03:02;;;;;;;1999.90;999.90;;;;;;;4.21;57.09;100405.94;4921896;28;97358;-71
2022/01/03 07:05:30;;;;;;;1999.90;999.90;;;;;;;4.19;57.10;100416.41;4939325;28;96799;-71
2022/01/03 07:07:59;;;;;;;1999.90;999.90;;;;;;;4.19;56.88;100415.50;4956235;28;96848;-70
2022/01/03 07:10:27;;;;;;;1999.90;999.90;;;;;;;4.21;56.98;100420.00;4937329;28;99224;-71
2022/01/03 07:12:55;;;;;;;1999.90;999.90;;;;;;;4.23;57.25;100412.16;4934829;28;99444;-71
2022/01/03 07:20:54;;;;;;;1999.90;999.90;;;;;;;4.19;57.24;100421.69;4935511;28;99318;-71
2022/01/03 07:23:22;;;;;;;1999.90;999.90;;;;;;;4.19;57.24;100418.13;4921448;28;100590;-71
2022/01/03 07:25:52;;;;;;;1999.90;999.90;;;;;;;4.18;57.32;100433.06;4941532;28;98906;-72
2022/01/03 07:28:20;;;;;;;1999.90;999.90;;;;;;;4.19;57.19;100433.94;4941398;28;98885;-71
2022/01/03 07:30:48;;;;;;;1999.90;999.90;;;;;;;4.19;57.22;100433.94;4938654;28;98411;-72
2022/01/03 07:33:16;;;;;;;1999.90;999.90;;;;;;;4.17;57.28;100440.91;4937641;28;98336;-71
2022/01/03 07:35:44;;;;;;;1999.90;999.90;;;;;;;4.15;57.59;100443.44;4940459;28;97223;-71
2022/01/03 07:38:11;;;;;;;1999.90;999.90;;;;;;;4.16;57.39;100447.91;4935079;28;96993;-72
2022/01/03 07:40:41;;;;;;;1999.90;999.90;;;;;;;4.15;57.26;100458.38;4938327;28;97713;-71
2022/01/03 07:43:08;;;;;;;1999.90;999.90;;;;;;;4.17;57.22;100441.78;4938240;28;99231;-72
2022/01/03 07:45:36;;;;;;;1999.90;999.90;;;;;;;4.15;57.24;100448.72;4940704;28;96893;-72
2022/01/03 07:48:04;;;;;;;1999.90;999.90;;;;;;;4.15;57.17;100448.72;4937543;28;98532;-71
2022/01/03 07:50:32;;;;;;;1999.90;999.90;;;;;;;4.18;57.16;100434.78;4939898;28;99862;-71
2022/01/03 07:53:00;;;;;;;1999.90;999.90;;;;;;;4.17;57.06;100436.50;4942754;28;98811;-73
2022/01/03 07:55:28;;;;;;;1999.90;999.90;;;;;;;4.19;57.16;100444.47;4936704;28;98065;-71
2022/01/03 07:57:57;;;;;;;1999.90;999.90;;;;;;;4.18;57.00;100453.22;4938436;28;99941;-71
2022/01/03 08:00:25;;;;;;;1999.90;999.90;;;;;;;4.18;57.07;100459.41;4934513;28;99395;-72
2022/01/03 08:02:53;;;;;;;1999.90;999.90;;;;;;;4.20;57.11;100459.44;4934949;28;99551;-72
2022/01/03 08:05:21;;;;;;;1999.90;999.90;;;;;;;4.20;57.06;100460.34;4937133;28;98198;-71
2022/01/03 08:07:49;;;;;;;1999.90;999.90;;;;;;;4.16;57.13;100466.31;4929928;28;97953;-71
2022/01/03 08:10:17;;;;;;;1999.90;999.90;;;;;;;4.17;57.20;100464.59;4931132;28;98028;-71
2022/01/03 08:12:45;;;;;;;1999.90;999.90;;;;;;;4.16;57.10;100486.47;4938539;28;99365;-71
2022/01/03 08:15:14;;;;;;;1999.90;999.90;;;;;;;4.17;57.20;100467.22;4936087;28;97272;-71
2022/01/03 08:17:46;;;;;;;1999.90;999.90;;;;;;;4.17;57.04;100476.00;4935874;28;98225;-72
2022/01/03 08:20:14;;;;;;;1999.90;999.90;;;;;;;4.19;57.16;100476.06;4935399;28;97651;-70
2022/01/03 08:22:41;;;;;;;1999.90;999.90;;;;;;;4.23;57.15;100478.91;4933704;28;99693;-70
2022/01/03 08:25:09;;;;;;;1999.90;999.90;;;;;;;4.22;57.09;100486.75;4934278;28;97267;-71
2022/01/03 08:27:37;;;;;;;1999.90;999.90;;;;;;;4.22;56.97;100490.25;4920568;28;97701;-71
2022/01/03 08:30:06;;;;;;;1999.90;999.90;;;;;;;4.25;56.90;100492.13;4916771;28;97682;-71
2022/01/03 08:32:35;;;;;;;1999.90;999.90;;;;;;;4.24;57.10;100490.34;4924778;28;99748;-71
2022/01/03 08:35:03;;;;;;;1999.90;999.90;;;;;;;4.22;57.06;100492.00;4928039;28;96923;-73
2022/01/03 08:37:31;;;;;;;1999.90;999.90;;;;;;;4.22;56.97;100498.16;4923011;28;98948;-70
2022/01/03 08:40:03;;;;;;;1999.90;999.90;;;;;;;4.21;57.01;100496.38;4924655;28;98276;-71
2022/01/03 08:42:31;;;;;;;1999.90;999.90;;;;;;;4.26;56.89;100482.50;4927660;28;98226;-70
2022/01/03 08:44:59;;;;;;;1999.90;999.90;;;;;;;4.27;56.96;100493.09;4931701;28;97336;-71
2022/01/03 08:47:27;;;;;;;1999.90;999.90;;;;;;;4.27;56.89;100500.09;4936111;28;97474;-71
2022/01/03 08:49:56;;;;;;;1999.90;999.90;;;;;;;4.25;57.24;100507.94;4929540;28;99601;-70
2022/01/03 08:52:23;;;;;;;1999.90;999.90;;;;;;;4.29;57.11;100496.69;4937671;28;98351;-71
2022/01/03 08:54:51;;;;;;;1999.90;999.90;;;;;;;4.31;57.08;100504.66;4935692;28;96871;-70
2022/01/03 08:57:21;;;;;;;1999.90;999.90;;;;;;;4.31;57.02;100507.28;4937909;28;98620;-71
2022/01/03 08:59:49;;;;;;;1999.90;999.90;;;;;;;4.31;56.91;100507.28;4928954;28;99106;-71
2022/01/03 09:02:17;;;;;;;1999.90;999.90;;;;;;;4.31;56.78;100508.19;4933604;28;99005;-71
2022/01/03 09:04:46;;;;;;;1999.90;999.90;;;;;;;4.35;56.86;100514.50;4932486;28;96927;-71
2022/01/03 09:07:15;;;;;;;1999.90;999.90;;;;;;;4.38;56.84;100526.06;4937503;28;96942;-71
2022/01/03 09:09:42;;;;;;;1999.90;999.90;;;;;;;4.41;56.79;100494.56;4936768;28;99011;-70
2022/01/03 09:12:10;;;;;;;1999.90;999.90;;;;;;;4.41;56.75;100514.75;4936306;28;98226;-70
2022/01/03 09:14:38;;;;;;;1999.90;999.90;;;;;;;4.42;56.83;100532.34;4965963;28;96853;-70
2022/01/03 09:17:06;;;;;;;1999.90;999.90;;;;;;;4.44;56.78;100514.88;4934971;28;96834;-70
2022/01/03 09:19:35;;;;;;;1999.90;999.90;;;;;;;4.44;56.64;100507.88;4964662;28;99565;-71
2022/01/03 09:22:10;;;;;;;1999.90;999.90;;;;;;;4.46;56.75;100507.94;4913340;28;100293;-70
2022/01/03 09:24:46;;;;;;;1999.90;999.90;;;;;;;4.48;56.57;100517.69;4930794;28;97775;-70
2022/01/03 09:30:03;;;;;;;1999.90;999.90;;;;;;;4.54;56.72;100515.31;4931326;28;99499;-71
2022/01/03 09:32:31;;;;;;;1999.90;999.90;;;;;;;4.57;56.75;100518.06;4919794;28;98759;-70
2022/01/03 09:35:00;;;;;;;1999.90;999.90;;;;;;;4.61;56.42;100505.94;4919126;28;98433;-70
2022/01/03 09:37:28;;;;;;;1999.90;999.90;;;;;;;4.63;56.49;100513.03;4922804;28;98924;-71
2022/01/03 09:39:57;;;;;;;1999.90;999.90;;;;;;;4.62;56.58;100500.72;4926776;28;99456;-71
2022/01/03 09:42:28;;;;;;;1999.90;999.90;;;;;;;4.61;56.56;100500.66;4922981;28;101456;-70
2022/01/03 09:44:58;;;;;;;1999.90;999.90;;;;;;;4.63;56.42;100501.59;4927088;28;100015;-71
2022/01/03 09:47:28;;;;;;;1999.90;999.90;;;;;;;4.66;56.56;100500.00;4921700;28;98704;-69
2022/01/03 09:49:56;;;;;;;1999.90;999.90;;;;;;;4.67;56.50;100491.25;4923319;28;99419;-71
2022/01/03 09:52:26;;;;;;;1999.90;999.90;;;;;;;4.72;56.55;100494.06;4920895;28;97625;-71
2022/01/03 09:54:57;;;;;;;1999.90;999.90;;;;;;;4.72;56.24;100484.41;4919706;28;97293;-71
2022/01/03 09:57:26;;;;;;;1999.90;999.90;;;;;;;4.75;56.64;100492.47;4934926;28;97528;-71
2022/01/03 09:59:54;;;;;;;1999.90;999.90;;;;;;;4.78;56.57;100492.56;4930532;28;99493;-71
2022/01/03 10:02:27;;;;;;;1999.90;999.90;;;;;;;4.80;56.37;100496.19;4920330;28;96858;-71
2022/01/03 10:04:59;;;;;;;1999.90;999.90;;;;;;;4.83;56.30;100491.00;4926631;28;98989;-71
2022/01/03 10:07:27;;;;;;;1999.90;999.90;;;;;;;4.87;56.34;100492.03;4926038;28;97909;-71
2022/01/03 10:09:56;;;;;;;1999.90;999.90;;;;;;;4.90;56.29;100489.53;4920096;28;99578;-71
2022/01/03 10:12:24;;;;;;;1999.90;999.90;;;;;;;4.92;56.01;100485.19;4934610;28;102056;-72
2022/01/03 10:14:52;;;;;;;1999.90;999.90;;;;;;;4.94;56.38;100475.59;4921320;28;98746;-71
2022/01/03 10:17:20;;;;;;;1999.90;999.90;;;;;;;4.97;55.92;100479.25;4922195;28;98409;-70
2022/01/03 10:19:52;;;;;;;1999.90;999.90;;;;;;;4.99;56.08;100476.72;4923792;28;98983;-71
2022/01/03 10:22:22;;;;;;;1999.90;999.90;;;;;;;5.03;56.17;100471.63;4929261;28;99880;-71
2022/01/03 10:24:50;;;;;;;1999.90;999.90;;;;;;;5.05;55.71;100477.88;4958460;28;97578;-70
2022/01/03 10:27:19;;;;;;;1999.90;999.90;;;;;;;5.06;56.00;100486.69;4934170;28;97167;-70
2022/01/03 10:29:58;;;;;;;1999.90;999.90;;;;;;;5.06;55.02;100465.59;4934782;28;100175;-71
2022/01/03 10:32:28;;;;;;;1999.90;999.90;;;;;;;5.09;55.56;100465.69;4931944;28;100627;-71
2022/01/03 10:34:57;;;;;;;1999.90;999.90;;;;;;;5.12;55.51;100463.16;4933726;28;96821;-70
2022/01/03 10:37:35;;;;;;;1999.90;999.90;;;;;;;5.15;55.12;100469.47;4932878;28;99231;-70
2022/01/03 10:40:17;;;;;;;1999.90;999.90;;;;;;;5.13;54.50;100462.34;4929642;28;100514;-70
2022/01/03 10:42:46;;;;;;;1999.90;999.90;;;;;;;5.15;55.08;100471.22;4933816;28;98898;-70
2022/01/03 10:45:14;;;;;;;1999.90;999.90;;;;;;;5.18;55.36;100466.03;4908308;28;96841;-70
2022/01/03 10:47:42;;;;;;;1999.90;999.90;;;;;;;5.20;55.28;100472.28;4919308;28;96923;-69
2022/01/03 10:50:14;;;;;;;1999.90;999.90;;;;;;;5.22;54.88;100460.03;4904884;28;99130;-70
2022/01/03 10:52:42;;;;;;;1999.90;999.90;;;;;;;5.25;54.72;100460.16;4930989;28;97228;-70
2022/01/03 10:55:12;;;;;;;1999.90;999.90;;;;;;;5.30;54.59;100463.88;4935720;28;97239;-70
2022/01/03 10:57:52;;;;;;;1999.90;999.90;;;;;;;5.33;53.15;100474.53;4934048;28;98707;-69
2022/01/03 11:00:22;;;;;;;1999.90;999.90;;;;;;;5.37;54.89;100460.63;4919058;28;100105;-70
2022/01/03 11:03:15;;;;;;;1999.90;999.90;;;;;;;5.38;53.25;100457.13;4927750;28;99805;-70
2022/01/03 11:05:49;;;;;;;1999.90;999.90;;;;;;;5.40;54.91;100462.44;4934337;28;98468;-70
2022/01/03 11:11:07;;;;;;;1999.90;999.90;;;;;;;5.46;54.35;100460.94;4928990;28;98778;-70
2022/01/03 11:13:39;;;;;;;1999.90;999.90;;;;;;;5.43;54.22;100452.91;4916712;28;97793;-69
2022/01/03 11:16:09;;;;;;;1999.90;999.90;;;;;;;5.43;54.30;100444.13;4922002;28;98737;-70
2022/01/03 11:18:37;;;;;;;1999.90;999.90;;;;;;;5.42;54.16;100440.56;4919577;28;97166;-70